Reed City, Michigan
Current Conditions -  °F | °C
As of 8:34 AM on Friday 28 Nov 2014 (Local Time) from KRQB Reporting Station
Overcast Overcast  
Wind Chill: 19°   Ceiling: 3100
Heat Index: 19°   Visibility: 10mi
Dew Point: 17°   Wind: 3mph
Humidity: 91%   Direction: 200°SSW
Pressure: 30.25"   Gusts: NA
Location:  43.88°N, 85.51°W
Report Text: KRQB 281334Z AUTO 20003KT 10SM OVC031 M07/M09 A3025 RMK AO2 T10731086
Loading
Personal Weather Stations






























Interactive Weather Map New forecast layout! Learn more

10-Day Weather Forecast

Advertisements
Track Severe Weather on mobile